Time;durP1;ratioP1;P1;durP2;ratioP2;P2;SDS_P1;SDS_P2;PMS_P1;PMS_P2;Temp;Humidity;BMP_temperature;BMP_pressure;BME280_temperature;BME280_humidity;BME280_pressure;Samples;Min_cycle;Max_cycle;Signal;HPM_P1;HPM_P2
2021/12/13 00:02:42;;;;;;;16.77;6.07;;;10.50;99.90;;;;;;4994099;28;20022;-76
2021/12/13 00:05:16;;;;;;;18.10;6.63;;;10.50;99.90;;;;;;4976362;28;20026;-76
2021/12/13 00:07:44;;;;;;;15.25;6.28;;;10.50;99.90;;;;;;4993634;28;20034;-76
2021/12/13 00:10:18;;;;;;;15.18;5.30;;;10.50;99.90;;;;;;4993670;28;20444;-76
2021/12/13 00:13:03;;;;;;;17.40;5.45;;;10.40;99.90;;;;;;4994085;28;20027;-76
2021/12/13 00:15:33;;;;;;;16.70;5.35;;;10.40;99.90;;;;;;4993805;28;20030;-76
2021/12/13 00:18:03;;;;;;;19.88;5.25;;;10.40;99.90;;;;;;4993971;28;20062;-76
2021/12/13 00:20:40;;;;;;;14.80;4.60;;;10.40;99.90;;;;;;4994015;28;20023;-76
2021/12/13 00:23:25;;;;;;;18.00;5.20;;;10.40;99.90;;;;;;4993288;28;20060;-76
2021/12/13 00:25:56;;;;;;;20.45;5.28;;;10.30;99.90;;;;;;4993287;28;20137;-76
2021/12/13 00:28:24;;;;;;;17.05;4.88;;;10.40;99.90;;;;;;4975992;28;20022;-76
2021/12/13 00:31:23;;;;;;;19.60;6.40;;;10.40;99.90;;;;;;4979155;28;20053;-76
2021/12/13 00:34:29;;;;;;;14.20;5.07;;;10.30;99.90;;;;;;4995783;28;20037;-75
2021/12/13 00:37:09;;;;;;;14.90;4.55;;;10.30;99.90;;;;;;4975904;28;20130;-75
2021/12/13 00:40:00;;;;;;;12.38;4.95;;;10.30;99.90;;;;;;4960255;28;20023;-75
2021/12/13 00:42:33;;;;;;;9.05;3.75;;;10.20;99.90;;;;;;4994807;28;20018;-75
2021/12/13 00:45:05;;;;;;;14.73;3.00;;;10.30;99.90;;;;;;4978999;28;20034;-75
2021/12/13 00:47:32;;;;;;;11.52;3.42;;;10.30;99.90;;;;;;4996560;28;20470;-76
2021/12/13 00:50:25;;;;;;;9.93;3.13;;;10.30;99.90;;;;;;4996281;28;20022;-75
2021/12/13 00:52:52;;;;;;;10.35;2.58;;;10.30;99.90;;;;;;4996541;28;20037;-75
2021/12/13 00:55:25;;;;;;;12.10;3.78;;;10.20;99.90;;;;;;4996298;28;20041;-75
2021/12/13 00:58:12;;;;;;;13.40;3.55;;;10.20;99.90;;;;;;4996623;28;20059;-75
2021/12/13 01:00:52;;;;;;;6.55;2.00;;;10.20;99.90;;;;;;4995532;28;20402;-75
2021/12/13 01:03:19;;;;;;;12.68;2.88;;;10.20;99.90;;;;;;4996255;28;20467;-75
2021/12/13 01:06:19;;;;;;;10.98;2.75;;;10.20;99.90;;;;;;4995678;28;20038;-75
2021/12/13 01:08:59;;;;;;;8.27;2.42;;;10.10;99.90;;;;;;4996006;28;20031;-76
2021/12/13 01:11:32;;;;;;;5.35;1.75;;;10.20;99.90;;;;;;4978422;28;20034;-75
2021/12/13 01:14:32;;;;;;;8.15;1.75;;;10.20;99.90;;;;;;4996325;28;20081;-76
2021/12/13 01:17:25;;;;;;;7.18;1.70;;;10.20;99.90;;;;;;4983677;28;20083;-75
2021/12/13 01:20:00;;;;;;;6.95;1.67;;;10.20;99.90;;;;;;4978492;28;20015;-76
2021/12/13 01:27:45;;;;;;;5.45;1.60;;;10.20;99.90;;;;;;4995895;28;20117;-75
2021/12/13 01:30:15;;;;;;;6.47;1.52;;;10.20;99.90;;;;;;4995638;28;20471;-76
2021/12/13 01:32:45;;;;;;;3.47;1.17;;;10.20;99.90;;;;;;4995590;28;20019;-75
2021/12/13 01:35:39;;;;;;;6.15;1.50;;;10.20;99.90;;;;;;4995267;28;20057;-76
2021/12/13 01:38:34;;;;;;;7.13;1.52;;;10.20;99.90;;;;;;4975570;28;20034;-74
2021/12/13 01:41:08;;;;;;;4.78;1.75;;;10.20;99.90;;;;;;4994472;28;20027;-75
2021/12/13 01:43:37;;;;;;;9.10;1.02;;;10.20;99.90;;;;;;4994858;28;20463;-75
2021/12/13 01:46:03;;;;;;;4.88;1.48;;;10.20;99.90;;;;;;4995446;28;20018;-76
2021/12/13 01:48:34;;;;;;;4.43;1.67;;;10.10;99.90;;;;;;4995204;28;21440;-76
2021/12/13 01:51:07;;;;;;;5.03;1.20;;;10.20;99.90;;;;;;4995240;28;20028;-75
2021/12/13 01:53:58;;;;;;;3.35;0.90;;;10.10;99.90;;;;;;4995135;28;20034;-75
2021/12/13 01:56:46;;;;;;;3.53;0.80;;;10.10;99.90;;;;;;4977460;28;20046;-75
2021/12/13 02:02:14;;;;;;;1.17;0.60;;;10.10;99.90;;;;;;4994850;28;20033;-75
2021/12/13 02:04:40;;;;;;;3.60;0.57;;;10.10;99.90;;;;;;4995004;28;20038;-75
2021/12/13 02:07:07;;;;;;;2.47;0.45;;;10.00;99.90;;;;;;4994825;28;20069;-75
2021/12/13 02:09:41;;;;;;;5.28;0.57;;;10.00;99.90;;;;;;4994479;28;20106;-75
2021/12/13 02:12:14;;;;;;;1.80;0.68;;;10.00;99.90;;;;;;4994753;28;20105;-75
2021/12/13 02:17:42;;;;;;;4.10;1.05;;;10.10;99.90;;;;;;4976241;28;20093;-76
2021/12/13 02:20:18;;;;;;;3.90;0.93;;;10.10;99.90;;;;;;4991218;28;20101;-75
2021/12/13 02:22:48;;;;;;;4.35;0.82;;;10.10;99.90;;;;;;4995183;28;20026;-76
2021/12/13 02:25:17;;;;;;;5.07;0.68;;;10.10;99.90;;;;;;4976721;28;20406;-76
2021/12/13 02:28:09;;;;;;;6.97;1.20;;;10.10;99.90;;;;;;4976998;28;20030;-76
2021/12/13 02:30:46;;;;;;;5.20;1.23;;;10.10;99.90;;;;;;4965552;28;20487;-76
2021/12/13 02:33:16;;;;;;;6.57;1.83;;;10.10;99.90;;;;;;4994541;28;20430;-76
2021/12/13 02:35:55;;;;;;;4.40;1.48;;;10.00;99.90;;;;;;4994381;28;20026;-76
2021/12/13 02:38:22;;;;;;;8.57;2.10;;;10.10;99.90;;;;;;4976825;28;20071;-76
2021/12/13 02:40:51;;;;;;;8.15;2.63;;;10.00;99.90;;;;;;4994177;28;20110;-75
2021/12/13 02:43:22;;;;;;;6.85;2.65;;;10.10;99.90;;;;;;4977293;28;20018;-75
2021/12/13 02:45:52;;;;;;;7.57;2.83;;;10.10;99.90;;;;;;4977043;28;20486;-76
2021/12/13 02:48:29;;;;;;;9.25;3.03;;;10.10;99.90;;;;;;4994903;28;20073;-76
2021/12/13 02:50:59;;;;;;;10.25;2.85;;;10.10;99.90;;;;;;4994229;28;20114;-76
2021/12/13 02:53:59;;;;;;;13.00;3.28;;;10.00;99.90;;;;;;4994188;28;20034;-76
2021/12/13 02:56:29;;;;;;;5.85;3.42;;;10.00;99.90;;;;;;4969704;28;20520;-74
2021/12/13 02:58:57;;;;;;;11.35;4.15;;;9.90;99.90;;;;;;4976943;28;20034;-74
2021/12/13 03:01:39;;;;;;;9.50;3.97;;;9.90;99.90;;;;;;4994264;28;20356;-74
2021/12/13 03:04:09;;;;;;;13.98;4.47;;;9.90;99.90;;;;;;4994185;28;20038;-74
2021/12/13 03:06:40;;;;;;;13.48;4.55;;;9.90;99.90;;;;;;4993841;28;20027;-74
2021/12/13 03:09:11;;;;;;;11.98;5.07;;;10.00;99.90;;;;;;4994088;28;20030;-74
2021/12/13 03:11:37;;;;;;;11.50;4.63;;;10.00;99.90;;;;;;4976747;28;20483;-74
2021/12/13 03:14:14;;;;;;;10.60;5.25;;;10.00;99.90;;;;;;4993983;28;20030;-73
2021/12/13 03:16:50;;;;;;;13.52;4.97;;;10.00;99.90;;;;;;4993836;28;20463;-74
2021/12/13 03:19:38;;;;;;;16.90;6.03;;;10.00;99.90;;;;;;4976722;28;20030;-73
2021/12/13 03:22:41;;;;;;;10.07;4.95;;;10.00;99.90;;;;;;4976550;28;20022;-74
2021/12/13 03:25:16;;;;;;;12.35;5.50;;;9.90;99.90;;;;;;4994356;28;20476;-73
2021/12/13 03:27:56;;;;;;;13.10;5.18;;;9.90;99.90;;;;;;4993979;28;20076;-73
2021/12/13 03:30:28;;;;;;;12.05;5.72;;;9.90;99.90;;;;;;4994331;28;20426;-73
2021/12/13 03:33:05;;;;;;;11.80;5.88;;;9.90;99.90;;;;;;4993764;28;20030;-73
2021/12/13 03:35:37;;;;;;;11.82;5.45;;;10.00;99.90;;;;;;4994321;28;20041;-74
2021/12/13 03:38:25;;;;;;;13.02;5.55;;;10.00;99.90;;;;;;4977360;28;20065;-74
2021/12/13 03:40:51;;;;;;;16.85;5.18;;;10.00;99.90;;;;;;4976554;28;20025;-74
2021/12/13 03:43:25;;;;;;;13.20;4.60;;;10.00;99.90;;;;;;4994388;28;20106;-73
2021/12/13 03:45:54;;;;;;;12.98;4.97;;;10.00;99.90;;;;;;4993923;28;20026;-74
2021/12/13 03:48:28;;;;;;;11.40;5.28;;;10.00;99.90;;;;;;4993917;28;20099;-74
2021/12/13 03:50:58;;;;;;;10.43;5.13;;;10.00;99.90;;;;;;4976168;28;20026;-74
2021/12/13 03:53:27;;;;;;;12.55;5.03;;;10.00;99.90;;;;;;4993590;28;20157;-74
2021/12/13 03:56:02;;;;;;;10.70;4.72;;;10.00;99.90;;;;;;4993817;28;20034;-73
2021/12/13 03:58:32;;;;;;;9.05;5.00;;;10.00;99.90;;;;;;4978700;28;20065;-74
2021/12/13 04:01:21;;;;;;;12.90;5.75;;;10.00;99.90;;;;;;4993743;28;20510;-73
2021/12/13 04:03:48;;;;;;;11.95;5.40;;;10.00;99.90;;;;;;4983136;28;20129;-74
2021/12/13 04:06:18;;;;;;;13.25;5.32;;;10.00;99.90;;;;;;4979881;28;20029;-74
2021/12/13 04:08:55;;;;;;;8.05;4.00;;;10.00;99.90;;;;;;4979983;28;20094;-74
2021/12/13 04:11:24;;;;;;;7.53;4.20;;;10.00;99.90;;;;;;4997191;28;20031;-74
2021/12/13 04:13:57;;;;;;;9.48;4.50;;;10.00;99.90;;;;;;4980091;28;20446;-74
2021/12/13 04:17:19;;;;;;;10.98;4.93;;;10.00;99.90;;;;;;4996920;28;20030;-74
2021/12/13 04:19:59;;;;;;;10.07;5.28;;;10.00;99.90;;;;;;4913870;28;20041;-75
2021/12/13 04:22:29;;;;;;;9.13;4.70;;;10.00;99.90;;;;;;4996988;28;20037;-74
2021/12/13 04:25:03;;;;;;;12.90;5.03;;;10.00;99.90;;;;;;4996661;28;20109;-75
2021/12/13 04:27:38;;;;;;;9.10;4.45;;;10.00;99.90;;;;;;4979436;28;20569;-74
2021/12/13 04:30:28;;;;;;;10.50;4.95;;;10.00;99.90;;;;;;4997063;28;20117;-74
2021/12/13 04:33:00;;;;;;;10.73;4.95;;;10.00;99.90;;;;;;4996503;28;20025;-75
2021/12/13 04:35:27;;;;;;;8.95;4.40;;;9.90;99.90;;;;;;4978647;28;20026;-74
2021/12/13 04:37:58;;;;;;;8.93;4.53;;;9.90;99.90;;;;;;4979063;28;20026;-74
2021/12/13 04:40:38;;;;;;;8.80;5.00;;;10.00;99.90;;;;;;4996597;28;20022;-74
2021/12/13 04:43:17;;;;;;;9.77;4.32;;;10.00;99.90;;;;;;4996467;28;20022;-75
2021/12/13 04:45:47;;;;;;;9.68;4.78;;;10.00;99.90;;;;;;4996771;28;20030;-74
2021/12/13 04:48:18;;;;;;;7.40;4.00;;;10.00;99.90;;;;;;4996661;28;20109;-75
2021/12/13 04:51:10;;;;;;;10.02;4.72;;;10.00;99.90;;;;;;4979323;28;20529;-75
2021/12/13 04:53:44;;;;;;;10.95;4.85;;;10.00;99.90;;;;;;4996407;28;20101;-75
2021/12/13 04:56:13;;;;;;;11.82;5.05;;;10.00;99.90;;;;;;4997357;28;20030;-75
2021/12/13 04:58:42;;;;;;;8.55;4.28;;;10.00;99.90;;;;;;4979364;28;20108;-75
2021/12/13 05:01:12;;;;;;;8.98;4.30;;;10.00;99.90;;;;;;4979133;28;20026;-74
2021/12/13 05:03:44;;;;;;;13.57;5.28;;;10.00;99.90;;;;;;4996276;28;20030;-74
2021/12/13 05:06:17;;;;;;;9.85;4.47;;;10.00;99.90;;;;;;4996390;28;20093;-74
2021/12/13 05:08:49;;;;;;;12.07;5.00;;;10.00;99.90;;;;;;4996476;28;20487;-76
2021/12/13 05:11:21;;;;;;;8.82;4.20;;;10.00;99.90;;;;;;4978677;28;20077;-74
2021/12/13 05:13:54;;;;;;;10.10;5.30;;;9.90;99.90;;;;;;4997897;28;20026;-75
2021/12/13 05:16:41;;;;;;;11.93;5.25;;;10.00;99.90;;;;;;4995110;28;20092;-74
2021/12/13 05:19:09;;;;;;;8.93;4.25;;;10.00;99.90;;;;;;4995864;28;20073;-74
2021/12/13 05:21:40;;;;;;;8.38;4.10;;;10.00;99.90;;;;;;4978490;28;20069;-74
2021/12/13 05:24:14;;;;;;;9.20;4.95;;;10.00;99.90;;;;;;4972712;28;20109;-74
2021/12/13 05:26:43;;;;;;;12.90;5.20;;;9.90;99.90;;;;;;4978538;28;20029;-74
2021/12/13 05:29:22;;;;;;;9.55;4.97;;;9.90;99.90;;;;;;4996560;28;20038;-74
2021/12/13 05:32:11;;;;;;;11.30;5.10;;;9.90;99.90;;;;;;4996166;28;20034;-74
2021/12/13 05:34:43;;;;;;;;;;;9.90;99.90;;;;;;4996383;28;20546;-74
2021/12/13 05:37:09;;;;;;;14.23;5.18;;;9.90;99.90;;;;;;4995938;28;19916;-74
2021/12/13 05:39:37;;;;;;;14.55;5.28;;;9.90;99.90;;;;;;4978565;28;20064;-74
2021/12/13 05:42:09;;;;;;;13.20;6.47;;;9.90;99.90;;;;;;4978367;28;20090;-74
2021/12/13 05:44:41;;;;;;;17.48;5.75;;;9.90;99.90;;;;;;4995636;28;20026;-74
2021/12/13 05:47:24;;;;;;;10.73;5.45;;;9.90;99.90;;;;;;4996058;28;20023;-74
2021/12/13 05:49:52;;;;;;;10.23;5.72;;;9.90;99.90;;;;;;4995488;28;20022;-74
2021/12/13 05:52:26;;;;;;;11.68;6.20;;;9.90;99.90;;;;;;4978113;28;20026;-74
2021/12/13 05:54:58;;;;;;;10.30;5.32;;;9.80;99.90;;;;;;4978095;28;20022;-74
2021/12/13 05:57:29;;;;;;;10.52;5.07;;;9.80;99.90;;;;;;4995284;28;20026;-74
2021/12/13 05:59:54;;;;;;;11.18;5.18;;;9.80;99.90;;;;;;4995606;28;20018;-74
2021/12/13 06:02:45;;;;;;;11.45;4.90;;;9.80;99.90;;;;;;4995317;28;20035;-73
2021/12/13 06:05:53;;;;;;;12.68;5.20;;;9.80;99.90;;;;;;4975775;28;20038;-74
2021/12/13 06:08:26;;;;;;;13.25;5.57;;;9.80;99.90;;;;;;4938618;28;20035;-74
2021/12/13 06:11:14;;;;;;;11.95;5.65;;;9.80;99.90;;;;;;4958582;28;20042;-75
2021/12/13 06:13:43;;;;;;;9.55;5.07;;;9.80;99.90;;;;;;4958275;28;20400;-74
2021/12/13 06:16:18;;;;;;;14.35;6.25;;;10.00;99.90;;;;;;4975987;28;20062;-74
2021/12/13 06:19:03;;;;;;;13.60;5.63;;;9.80;99.90;;;;;;4962188;28;20030;-74
2021/12/13 06:21:51;;;;;;;16.10;6.43;;;9.80;99.90;;;;;;4977643;28;20085;-74
2021/12/13 06:24:27;;;;;;;14.38;5.93;;;9.80;99.90;;;;;;4977237;28;20491;-74
2021/12/13 06:27:22;;;;;;;12.52;5.85;;;9.80;99.90;;;;;;4994432;28;20028;-74
2021/12/13 06:29:56;;;;;;;13.18;6.18;;;9.80;99.90;;;;;;4965454;28;20102;-74
2021/12/13 06:32:30;;;;;;;13.50;5.50;;;9.80;99.90;;;;;;4995088;28;20022;-74
2021/12/13 06:34:59;;;;;;;13.68;5.90;;;9.80;99.90;;;;;;4994749;28;20054;-74
2021/12/13 06:37:35;;;;;;;13.88;5.55;;;9.80;99.90;;;;;;4994567;28;20022;-74
2021/12/13 06:40:27;;;;;;;13.10;5.57;;;9.80;99.90;;;;;;4977173;28;20022;-74
2021/12/13 06:43:02;;;;;;;14.38;5.93;;;9.90;99.90;;;;;;4994727;28;20026;-74
2021/12/13 06:45:32;;;;;;;11.85;5.55;;;9.90;99.90;;;;;;4994597;28;20033;-73
2021/12/13 06:48:00;;;;;;;11.98;5.97;;;9.90;99.90;;;;;;4994875;28;20041;-74
2021/12/13 06:50:31;;;;;;;11.10;5.68;;;9.90;99.90;;;;;;4994531;28;20073;-74
2021/12/13 06:53:15;;;;;;;17.52;5.93;;;9.90;99.90;;;;;;4994958;28;20123;-73
2021/12/13 06:55:42;;;;;;;13.68;5.10;;;9.90;99.90;;;;;;4994334;28;20022;-75
2021/12/13 06:58:15;;;;;;;13.75;6.07;;;9.90;99.90;;;;;;4976696;28;20038;-74
2021/12/13 07:00:41;;;;;;;13.85;5.85;;;9.90;99.90;;;;;;4994200;28;20078;-74
2021/12/13 07:03:10;;;;;;;14.10;5.55;;;9.90;99.90;;;;;;4994424;28;20628;-74
2021/12/13 07:05:56;;;;;;;;;;;9.90;99.90;;;;;;4994258;28;20023;-75
2021/12/13 07:08:26;;;;;;;12.35;5.65;;;9.90;99.90;;;;;;4993042;28;19917;-75
2021/12/13 07:10:52;;;;;;;14.38;5.90;;;9.90;99.90;;;;;;4994174;28;20041;-75
2021/12/13 07:13:37;;;;;;;21.33;6.30;;;9.90;99.90;;;;;;4993568;28;20105;-75
2021/12/13 07:16:05;;;;;;;17.45;6.53;;;9.90;99.90;;;;;;4994158;28;20546;-76
2021/12/13 07:18:47;;;;;;;16.73;5.97;;;9.90;99.90;;;;;;4976324;28;20368;-74
2021/12/13 07:21:49;;;;;;;15.00;6.45;;;9.90;99.90;;;;;;4994724;28;20049;-75
2021/12/13 07:24:30;;;;;;;18.13;7.70;;;9.90;99.90;;;;;;4960154;28;20042;-75
2021/12/13 07:27:08;;;;;;;15.00;6.95;;;9.90;99.90;;;;;;4994097;28;20483;-73
2021/12/13 07:29:53;;;;;;;16.35;6.22;;;9.90;99.90;;;;;;4976822;28;20081;-74
2021/12/13 07:32:37;;;;;;;21.42;7.85;;;9.90;99.90;;;;;;4994197;28;20030;-74
2021/12/13 07:35:14;;;;;;;16.60;6.30;;;9.90;99.90;;;;;;4976751;28;20076;-72
2021/12/13 07:37:42;;;;;;;16.50;6.50;;;9.90;99.90;;;;;;4993891;28;20057;-75
2021/12/13 07:40:22;;;;;;;17.15;7.80;;;9.90;99.90;;;;;;4979095;28;20489;-74
2021/12/13 07:43:03;;;;;;;17.95;6.75;;;9.90;99.90;;;;;;4997928;28;20018;-75
2021/12/13 07:45:34;;;;;;;17.95;7.18;;;9.90;99.90;;;;;;4998171;28;20026;-76
2021/12/13 07:48:07;;;;;;;17.33;8.23;;;9.90;99.90;;;;;;4980498;28;20065;-75
2021/12/13 07:50:33;;;;;;;21.90;7.75;;;9.90;99.90;;;;;;4997630;28;20027;-75
2021/12/13 07:53:02;;;;;;;19.52;7.60;;;9.90;99.90;;;;;;4991584;28;20038;-75
2021/12/13 07:55:29;;;;;;;;;;;9.90;99.90;;;;;;4997734;28;20483;-75
2021/12/13 07:57:58;;;;;;;20.60;6.70;;;9.90;99.90;;;;;;4979546;28;19967;-75
2021/12/13 08:00:33;;;;;;;23.08;7.68;;;9.80;99.90;;;;;;4980755;28;20023;-77
2021/12/13 08:03:09;;;;;;;22.38;8.07;;;9.80;99.90;;;;;;4996195;28;20511;-75
2021/12/13 08:05:55;;;;;;;23.65;8.90;;;9.80;99.90;;;;;;5003447;28;20022;-75
2021/12/13 08:08:25;;;;;;;20.73;7.20;;;9.90;99.90;;;;;;4987651;28;20042;-75
2021/12/13 08:10:57;;;;;;;22.67;8.18;;;9.90;99.90;;;;;;4996898;28;20045;-75
2021/12/13 08:13:31;;;;;;;23.05;8.68;;;9.90;99.90;;;;;;4996649;28;20033;-75
2021/12/13 08:16:02;;;;;;;20.40;7.70;;;9.90;99.90;;;;;;4979263;28;20030;-75
2021/12/13 08:18:38;;;;;;;19.50;6.68;;;9.90;99.90;;;;;;4996929;28;20383;-74
2021/12/13 08:21:07;;;;;;;18.05;7.07;;;9.90;99.90;;;;;;4996933;28;20058;-74
2021/12/13 08:23:45;;;;;;;16.33;6.85;;;9.90;99.90;;;;;;4996762;28;20027;-75
2021/12/13 08:26:17;;;;;;;21.05;8.05;;;9.90;99.90;;;;;;4979384;28;20102;-75
2021/12/13 08:28:48;;;;;;;19.05;7.90;;;9.90;99.90;;;;;;4979110;28;20022;-75
2021/12/13 08:31:39;;;;;;;17.63;7.60;;;9.90;99.90;;;;;;4996630;28;20054;-75
2021/12/13 08:34:22;;;;;;;18.05;6.40;;;9.90;99.90;;;;;;4992497;28;20541;-75
2021/12/13 08:36:50;;;;;;;17.92;7.25;;;9.90;99.90;;;;;;4996416;28;20034;-74
2021/12/13 08:39:18;;;;;;;19.70;7.60;;;10.00;99.90;;;;;;4979093;28;20030;-74
2021/12/13 08:41:52;;;;;;;20.00;7.38;;;10.00;99.90;;;;;;4996964;28;20050;-74
2021/12/13 08:44:26;;;;;;;16.80;7.55;;;10.00;99.90;;;;;;4995587;28;20105;-75
2021/12/13 08:46:52;;;;;;;17.30;7.00;;;10.00;99.90;;;;;;4978784;28;20475;-75
2021/12/13 08:49:23;;;;;;;18.27;7.22;;;10.00;99.90;;;;;;4996785;28;20034;-75
2021/12/13 08:52:14;;;;;;;17.42;6.65;;;10.00;99.90;;;;;;4978330;28;20117;-75
2021/12/13 08:54:48;;;;;;;19.23;6.18;;;10.00;99.90;;;;;;4995729;28;20041;-75
2021/12/13 08:57:43;;;;;;;21.48;7.53;;;10.00;99.90;;;;;;4996547;28;20556;-74
2021/12/13 09:00:23;;;;;;;17.55;7.47;;;10.00;99.90;;;;;;4961470;28;20151;-75
2021/12/13 09:03:11;;;;;;;16.15;6.20;;;10.00;99.90;;;;;;4995864;28;20391;-75
2021/12/13 09:05:50;;;;;;;20.23;6.60;;;9.90;99.90;;;;;;4978892;28;20030;-75
2021/12/13 09:08:18;;;;;;;19.42;6.68;;;9.90;99.90;;;;;;4977932;28;20061;-75
2021/12/13 09:10:52;;;;;;;17.63;6.78;;;9.90;99.90;;;;;;4995745;28;20057;-75
2021/12/13 09:13:33;;;;;;;18.58;6.90;;;9.90;99.90;;;;;;4996165;28;20023;-77
2021/12/13 09:16:00;;;;;;;15.10;6.90;;;9.90;99.90;;;;;;4978705;28;20509;-77
2021/12/13 09:18:25;;;;;;;16.63;6.43;;;10.00;99.90;;;;;;4995574;28;20114;-77
2021/12/13 09:20:54;;;;;;;17.60;6.68;;;10.00;99.90;;;;;;4995982;28;20447;-77
2021/12/13 09:23:27;;;;;;;21.08;7.90;;;10.00;99.90;;;;;;4978496;28;20487;-76
2021/12/13 09:26:19;;;;;;;17.25;6.38;;;10.00;99.90;;;;;;4978384;28;20091;-77
2021/12/13 09:28:52;;;;;;;20.17;7.55;;;10.00;99.90;;;;;;4978405;28;20031;-77
2021/12/13 09:31:23;;;;;;;20.25;7.43;;;10.00;99.90;;;;;;4996390;28;20105;-77
2021/12/13 09:33:58;;;;;;;19.75;6.93;;;10.00;99.90;;;;;;4995732;28;20030;-77
2021/12/13 09:36:28;;;;;;;14.82;6.38;;;10.00;99.90;;;;;;4995852;28;20038;-77
2021/12/13 09:39:04;;;;;;;14.25;6.13;;;10.10;99.90;;;;;;4978244;28;20019;-77
2021/12/13 09:41:46;;;;;;;16.27;5.40;;;10.10;99.90;;;;;;4995670;28;20050;-77
2021/12/13 09:44:11;;;;;;;20.23;6.55;;;10.10;99.90;;;;;;4996078;28;20022;-77
2021/12/13 09:46:46;;;;;;;19.02;6.57;;;10.10;99.90;;;;;;4978060;28;20114;-77
2021/12/13 09:49:26;;;;;;;17.30;5.85;;;10.10;99.90;;;;;;4996043;28;20032;-77
2021/12/13 09:52:00;;;;;;;17.95;6.22;;;10.20;99.90;;;;;;4995411;28;20026;-77
2021/12/13 09:54:34;;;;;;;12.85;4.75;;;10.20;99.90;;;;;;4996486;28;20080;-76
2021/12/13 09:57:05;;;;;;;15.52;5.45;;;10.20;99.90;;;;;;4977898;28;20026;-77
2021/12/13 09:59:41;;;;;;;12.98;6.20;;;10.20;99.90;;;;;;4995475;28;20493;-77
2021/12/13 10:02:11;;;;;;;14.20;5.38;;;10.30;99.90;;;;;;4977282;28;20019;-77
2021/12/13 10:04:40;;;;;;;19.75;6.85;;;10.30;99.90;;;;;;4995459;28;20023;-77
2021/12/13 10:07:30;;;;;;;13.65;4.85;;;10.30;99.90;;;;;;4995250;28;20027;-77
2021/12/13 10:10:21;;;;;;;16.52;5.40;;;10.30;99.90;;;;;;4995096;28;20027;-77
2021/12/13 10:12:54;;;;;;;18.17;6.40;;;10.40;99.90;;;;;;4984396;28;20053;-77
2021/12/13 10:15:25;;;;;;;14.55;5.70;;;10.40;99.90;;;;;;4995097;28;20388;-77
2021/12/13 10:17:55;;;;;;;16.20;5.97;;;10.30;99.90;;;;;;4995867;28;20466;-77
2021/12/13 10:20:43;;;;;;;14.32;5.47;;;10.30;99.90;;;;;;4977447;28;20026;-77
2021/12/13 10:23:12;;;;;;;12.40;5.15;;;10.30;99.90;;;;;;4994740;28;20116;-77
2021/12/13 10:25:46;;;;;;;14.30;5.55;;;10.30;99.90;;;;;;4977431;28;20031;-77
2021/12/13 10:28:21;;;;;;;13.50;4.55;;;10.30;99.90;;;;;;4995304;28;20022;-77
2021/12/13 10:30:52;;;;;;;14.38;5.45;;;10.30;99.90;;;;;;4994757;28;20030;-77
2021/12/13 10:33:20;;;;;;;14.07;5.50;;;10.40;99.90;;;;;;4994645;28;20123;-77
2021/12/13 10:35:47;;;;;;;14.80;6.03;;;10.40;99.90;;;;;;4994611;28;20018;-77
2021/12/13 10:38:28;;;;;;;11.05;4.53;;;10.40;99.90;;;;;;4994448;28;20080;-77
2021/12/13 10:40:59;;;;;;;14.23;5.35;;;10.40;99.90;;;;;;4995195;28;20109;-77
2021/12/13 10:43:29;;;;;;;10.15;4.55;;;10.50;99.90;;;;;;4994911;28;20092;-77
2021/12/13 10:46:02;;;;;;;13.90;5.95;;;10.50;99.90;;;;;;4994649;28;20022;-77
2021/12/13 10:48:30;;;;;;;14.68;4.65;;;10.40;99.90;;;;;;4994952;28;20061;-77
2021/12/13 10:51:07;;;;;;;17.52;5.30;;;10.40;99.90;;;;;;4994503;28;20053;-77
2021/12/13 10:53:34;;;;;;;13.00;4.63;;;10.40;99.90;;;;;;4994278;28;20402;-77
2021/12/13 10:56:05;;;;;;;13.93;4.75;;;10.40;99.90;;;;;;4976926;28;20034;-77
2021/12/13 10:58:36;;;;;;;16.70;5.30;;;10.40;99.90;;;;;;4994128;28;20113;-77
2021/12/13 11:01:07;;;;;;;14.82;4.95;;;10.40;99.90;;;;;;4994824;28;20014;-77
2021/12/13 11:03:35;;;;;;;14.32;5.93;;;10.40;99.90;;;;;;4994660;28;20487;-77
2021/12/13 11:06:01;;;;;;;12.65;4.63;;;10.40;99.90;;;;;;4994212;28;20033;-77
2021/12/13 11:08:29;;;;;;;15.55;5.28;;;10.50;99.90;;;;;;4994023;28;20034;-77
2021/12/13 11:11:21;;;;;;;15.40;5.13;;;10.50;99.90;;;;;;4994174;28;20045;-77
2021/12/13 11:13:53;;;;;;;16.75;5.03;;;10.50;99.90;;;;;;4994128;28;20026;-77
2021/12/13 11:16:41;;;;;;;10.63;4.78;;;10.60;99.90;;;;;;4994342;28;20593;-77
2021/12/13 11:19:13;;;;;;;14.35;5.22;;;10.60;99.90;;;;;;4994320;28;20037;-77
2021/12/13 11:21:42;;;;;;;16.75;5.70;;;10.60;99.90;;;;;;4976967;28;20406;-77
2021/12/13 11:24:12;;;;;;;12.98;4.30;;;10.60;99.90;;;;;;4976602;28;20076;-77
2021/12/13 11:26:42;;;;;;;14.02;5.22;;;10.70;99.90;;;;;;4994048;28;20426;-77
2021/12/13 11:29:11;;;;;;;15.13;4.85;;;10.70;99.90;;;;;;4994432;28;20030;-77
2021/12/13 11:31:55;;;;;;;14.15;4.85;;;10.60;99.90;;;;;;4994243;28;20029;-77
2021/12/13 11:34:29;;;;;;;12.77;4.72;;;10.60;99.90;;;;;;4994260;28;20484;-77
2021/12/13 11:37:32;;;;;;;13.85;5.38;;;10.70;99.90;;;;;;4976380;28;20089;-77
2021/12/13 11:40:15;;;;;;;11.40;4.70;;;10.70;99.90;;;;;;4994011;28;20030;-77
2021/12/13 11:42:41;;;;;;;10.93;4.43;;;10.60;99.90;;;;;;4993866;28;20030;-77
2021/12/13 11:45:13;;;;;;;9.45;3.75;;;10.70;99.90;;;;;;4993616;28;20510;-77
2021/12/13 11:48:00;;;;;;;15.40;4.70;;;10.70;99.90;;;;;;4993778;28;20026;-77
2021/12/13 11:50:56;;;;;;;9.90;4.20;;;10.70;99.90;;;;;;4993856;28;20506;-77
2021/12/13 11:53:43;;;;;;;11.27;4.72;;;10.70;99.90;;;;;;4976398;28;20483;-77
2021/12/13 11:56:36;;;;;;;14.50;4.22;;;10.80;99.90;;;;;;4993998;28;20042;-77
2021/12/13 11:59:29;;;;;;;10.20;3.95;;;10.80;99.90;;;;;;4993653;28;20037;-77
2021/12/13 12:02:33;;;;;;;9.95;4.20;;;10.80;99.90;;;;;;4994381;28;20050;-77
2021/12/13 12:05:36;;;;;;;9.15;3.78;;;10.80;99.90;;;;;;4976262;28;20014;-77
2021/12/13 12:08:32;;;;;;;10.93;3.08;;;10.90;99.90;;;;;;4993674;28;20030;-77
2021/12/13 12:11:25;;;;;;;9.40;3.08;;;10.90;99.90;;;;;;4953894;28;20487;-76
2021/12/13 12:14:11;;;;;;;12.98;3.88;;;10.90;99.90;;;;;;4975877;28;20077;-76
2021/12/13 12:16:41;;;;;;;12.98;2.95;;;10.90;99.90;;;;;;4976188;28;20044;-76
2021/12/13 12:19:13;;;;;;;11.38;3.92;;;10.90;99.90;;;;;;4976179;28;20585;-76
2021/12/13 12:21:50;;;;;;;12.18;4.25;;;10.80;99.90;;;;;;4994253;28;20081;-76
2021/12/13 12:24:26;;;;;;;17.08;3.65;;;10.90;99.90;;;;;;4993572;28;20034;-76
2021/12/13 12:26:57;;;;;;;14.35;3.75;;;10.80;99.90;;;;;;4996846;28;20101;-77
2021/12/13 12:29:27;;;;;;;10.13;4.38;;;10.80;99.90;;;;;;4979654;28;20026;-76
2021/12/13 12:32:04;;;;;;;11.63;4.13;;;10.80;99.90;;;;;;4997389;28;20073;-76
2021/12/13 12:34:31;;;;;;;11.05;3.35;;;10.70;99.90;;;;;;4997281;28;20113;-76
2021/12/13 12:36:56;;;;;;;11.82;3.53;;;10.70;99.90;;;;;;4996853;28;20034;-76
2021/12/13 12:40:06;;;;;;;9.43;3.33;;;10.80;99.90;;;;;;4996830;28;20467;-76
2021/12/13 12:42:54;;;;;;;10.27;3.42;;;10.80;99.90;;;;;;4997062;28;20101;-76
2021/12/13 12:45:41;;;;;;;28.55;4.72;;;10.80;99.90;;;;;;4979350;28;20050;-76
2021/12/13 12:48:18;;;;;;;11.38;3.92;;;10.80;99.90;;;;;;4979152;28;20026;-76
2021/12/13 12:50:54;;;;;;;10.90;3.30;;;10.80;99.90;;;;;;4996543;28;20026;-76
2021/12/13 12:53:30;;;;;;;9.05;3.35;;;10.80;99.90;;;;;;4996330;28;20029;-76
2021/12/13 12:55:58;;;;;;;11.68;4.07;;;10.80;99.90;;;;;;4997092;28;20490;-77
2021/12/13 12:58:29;;;;;;;10.50;3.70;;;10.80;99.90;;;;;;4980044;28;20395;-77
2021/12/13 13:00:59;;;;;;;10.38;3.05;;;10.70;99.90;;;;;;4997454;28;20161;-77
2021/12/13 13:03:31;;;;;;;11.30;4.70;;;10.70;99.90;;;;;;4996925;28;20088;-77
2021/12/13 13:06:14;;;;;;;10.48;3.42;;;10.70;99.90;;;;;;4980051;28;20359;-77
2021/12/13 13:08:43;;;;;;;12.57;4.50;;;10.70;99.90;;;;;;4996537;28;20030;-77
2021/12/13 13:11:27;;;;;;;8.23;3.28;;;10.60;99.90;;;;;;4979340;28;20023;-77
2021/12/13 13:13:58;;;;;;;6.55;2.80;;;10.60;99.90;;;;;;4978778;28;20530;-77
2021/12/13 13:16:35;;;;;;;8.57;3.72;;;10.60;99.90;;;;;;4996478;28;20022;-77
2021/12/13 13:19:03;;;;;;;10.02;3.42;;;10.70;99.90;;;;;;4996336;28;20479;-77
2021/12/13 13:21:28;;;;;;;8.98;3.47;;;10.70;99.90;;;;;;4996371;28;20030;-77
2021/12/13 13:24:00;;;;;;;14.88;4.40;;;10.70;99.90;;;;;;4996481;28;20030;-77
2021/12/13 13:26:29;;;;;;;7.03;3.13;;;10.60;99.90;;;;;;4979063;28;20023;-77
2021/12/13 13:29:07;;;;;;;11.60;3.42;;;10.60;99.90;;;;;;4996242;28;20475;-76
2021/12/13 13:31:38;;;;;;;7.65;3.78;;;10.60;99.90;;;;;;4996413;28;20022;-77
2021/12/13 13:34:10;;;;;;;11.50;3.88;;;10.60;99.90;;;;;;4995881;28;20403;-77
2021/12/13 13:36:49;;;;;;;9.43;3.13;;;10.60;99.90;;;;;;4995072;28;20033;-77
2021/12/13 13:39:23;;;;;;;9.65;3.10;;;10.60;99.90;;;;;;4996040;28;20058;-77
2021/12/13 13:42:12;;;;;;;8.98;3.28;;;10.60;99.90;;;;;;4996165;28;20057;-77